Time,TemperatureF,DewpointF,PressureIn,WindDirection,WindDirectionDegrees,WindSpeedMPH,WindSpeedGustMPH,Humidity,HourlyPrecipIn,Conditions,Clouds,dailyrainin,SoftwareType,DateUTC
2013-10-03 00:04:00,40.2,37.2,29.65,NNW,348,0.0,3.0,89,0.00,,---,0.00,VWS V14.01,2013-10-03 08:04:00,
2013-10-03 00:34:00,39.8,36.2,29.64,NNW,348,0.0,1.0,87,0.00,,---,0.00,VWS V14.01,2013-10-03 08:34:00,
2013-10-03 01:04:00,39.7,36.4,29.63,NNW,348,0.0,0.0,88,0.00,,---,0.00,VWS V14.01,2013-10-03 09:04:00,
2013-10-03 01:34:00,39.6,36.6,29.62,NNW,348,0.0,0.0,89,0.00,,---,0.00,VWS V14.01,2013-10-03 09:34:00,
2013-10-03 02:04:00,40.3,37.6,29.62,NNW,348,0.0,1.0,90,0.00,,---,0.00,VWS V14.01,2013-10-03 10:04:00,
2013-10-03 02:34:00,40.2,37.8,29.59,NNW,348,0.0,0.0,91,0.00,,---,0.00,VWS V14.01,2013-10-03 10:34:00,
2013-10-03 03:04:00,40.2,38.1,29.58,NNW,348,0.0,0.0,92,0.00,,---,0.00,VWS V14.01,2013-10-03 11:04:00,
2013-10-03 03:34:00,40.4,38.5,29.56,NNW,348,0.0,1.0,93,0.00,,---,0.00,VWS V14.01,2013-10-03 11:34:00,
2013-10-03 04:04:00,40.4,38.5,29.54,NNW,348,0.0,0.0,93,0.00,,---,0.00,VWS V14.01,2013-10-03 12:04:00,
2013-10-03 04:34:00,41.9,39.5,29.52,SSE,163,0.0,4.0,91,0.00,,---,0.00,VWS V14.01,2013-10-03 12:34:00,
2013-10-03 05:04:00,42.3,38.7,29.50,East,88,2.0,3.0,87,0.00,,---,0.00,VWS V14.01,2013-10-03 13:04:00,
2013-10-03 05:34:00,43.4,38.6,29.49,NE,52,0.0,8.0,83,0.00,,---,0.00,VWS V14.01,2013-10-03 13:34:00,
2013-10-03 06:04:00,42.0,38.4,29.47,NE,52,0.0,2.0,87,0.00,,---,0.00,VWS V14.01,2013-10-03 14:04:00,
2013-10-03 06:34:00,41.6,38.9,29.45,NE,52,0.0,1.0,90,0.00,,---,0.00,VWS V14.01,2013-10-03 14:34:00,
2013-10-03 07:04:00,41.5,38.8,29.44,NE,52,0.0,2.0,90,0.00,,---,0.00,VWS V14.01,2013-10-03 15:04:00,
2013-10-03 07:34:00,41.9,39.5,29.42,NW,309,0.0,2.0,91,0.00,,---,0.00,VWS V14.01,2013-10-03 15:34:00,
2013-10-03 08:04:00,45.3,40.1,29.40,NE,53,0.0,5.0,82,0.00,,---,0.00,VWS V14.01,2013-10-03 16:04:00,
2013-10-03 08:34:00,45.9,39.8,29.39,NE,48,0.0,9.0,79,0.00,,---,0.00,VWS V14.01,2013-10-03 16:34:00,
2013-10-03 09:04:00,47.1,39.9,29.39,East,86,1.0,9.0,76,0.00,,---,0.00,VWS V14.01,2013-10-03 17:04:00,
2013-10-03 09:34:00,47.1,39.9,29.37,NE,44,7.0,10.0,76,0.00,,---,0.00,VWS V14.01,2013-10-03 17:34:00,
2013-10-03 10:04:00,46.7,39.9,29.36,ENE,62,0.0,10.0,77,0.00,,---,0.00,VWS V14.01,2013-10-03 18:04:00,
2013-10-03 10:34:00,46.6,40.1,29.34,ENE,77,8.0,14.0,78,0.00,,---,0.00,VWS V14.01,2013-10-03 18:34:00,
2013-10-03 11:04:00,46.7,40.2,29.33,North,5,5.0,13.0,78,0.00,,---,0.00,VWS V14.01,2013-10-03 19:04:00,
2013-10-03 11:34:00,46.8,40.3,29.31,ESE,111,0.0,11.0,78,0.00,,---,0.00,VWS V14.01,2013-10-03 19:34:00,
2013-10-03 12:04:00,47.2,40.4,29.29,North,349,3.0,7.0,77,0.00,,---,0.00,VWS V14.01,2013-10-03 20:04:00,
2013-10-03 12:34:00,47.3,40.5,29.28,NNW,344,0.0,12.0,77,0.00,,---,0.00,VWS V14.01,2013-10-03 20:34:00,
2013-10-03 13:04:00,47.7,40.8,29.26,NE,42,0.0,10.0,77,0.00,,---,0.00,VWS V14.01,2013-10-03 21:04:00,
2013-10-03 13:34:00,48.1,40.9,29.26,NE,52,2.0,10.0,76,0.00,,---,0.00,VWS V14.01,2013-10-03 21:34:00,
2013-10-03 14:04:00,47.6,41.4,29.25,ENE,78,1.0,14.0,79,0.00,,---,0.00,VWS V14.01,2013-10-03 22:04:00,
2013-10-03 14:34:00,46.8,41.3,29.25,East,95,5.0,13.0,81,0.00,,---,0.00,VWS V14.01,2013-10-03 22:34:00,
2013-10-03 15:04:00,46.7,41.8,29.24,ENE,61,2.0,14.0,83,0.00,,---,0.00,VWS V14.01,2013-10-03 23:04:00,
2013-10-03 15:34:00,46.4,42.5,29.24,NNE,26,3.0,12.0,86,0.00,,---,0.00,VWS V14.01,2013-10-03 23:34:00,
2013-10-03 16:04:00,46.5,42.5,29.23,ENE,72,1.0,10.0,86,0.00,,---,0.00,VWS V14.01,2013-10-04 00:04:00,
2013-10-03 16:34:00,46.9,42.9,29.24,NE,38,6.0,11.0,86,0.01,,---,0.01,VWS V14.01,2013-10-04 00:34:00,
2013-10-03 17:04:00,47.4,43.4,29.25,NNE,22,5.0,12.0,86,0.02,,---,0.02,VWS V14.01,2013-10-04 01:04:00,
2013-10-03 17:34:00,47.8,43.2,29.25,NE,48,1.0,12.0,84,0.02,,---,0.02,VWS V14.01,2013-10-04 01:34:00,
2013-10-03 18:04:00,47.8,43.5,29.25,NE,51,1.0,7.0,85,0.01,,---,0.02,VWS V14.01,2013-10-04 02:04:00,
2013-10-03 18:34:00,47.9,44.2,29.26,East,83,0.0,6.0,87,0.00,,---,0.02,VWS V14.01,2013-10-04 02:34:00,
2013-10-03 19:04:00,47.2,44.4,29.27,ENE,60,1.0,5.0,90,0.01,,---,0.03,VWS V14.01,2013-10-04 03:04:00,
2013-10-03 19:34:00,46.1,43.3,29.29,ENE,75,0.0,5.0,90,0.01,,---,0.03,VWS V14.01,2013-10-04 03:34:00,
2013-10-03 21:04:00,44.9,43.0,29.32,SE,130,0.0,2.0,93,0.00,,---,0.03,VWS V14.01,2013-10-04 05:04:00,
2013-10-03 21:34:00,43.6,41.7,29.33,SE,130,0.0,0.0,93,0.00,,---,0.03,VWS V14.01,2013-10-04 05:34:00,
2013-10-03 22:04:00,42.8,41.2,29.34,SE,129,0.0,1.0,94,0.00,,---,0.03,VWS V14.01,2013-10-04 06:04:00,
2013-10-03 22:34:00,42.1,40.5,29.35,SE,130,0.0,0.0,94,0.00,,---,0.03,VWS V14.01,2013-10-04 06:34:00,
2013-10-03 23:04:00,42.7,41.1,29.35,SE,130,0.0,0.0,94,0.00,,---,0.03,VWS V14.01,2013-10-04 07:04:00,
2013-10-03 23:34:00,44.0,42.4,29.36,SE,146,0.0,2.0,94,0.00,,---,0.03,VWS V14.01,2013-10-04 07:34:00,